Time;durP1;ratioP1;P1;durP2;ratioP2;P2;SDS_P1;SDS_P2;PMS_P1;PMS_P2;Temp;Humidity;BMP_temperature;BMP_pressure;BME280_temperature;BME280_humidity;BME280_pressure;Samples;Min_cycle;Max_cycle;Signal;HPM_P1;HPM_P2
2021/05/06 00:02:00;;;;;;;19.43;7.70;;;;;;;4.93;70.72;97978.98;2163306;82;20354;-78
2021/05/06 00:05:28;;;;;;;21.27;8.40;;;;;;;4.92;71.07;97984.12;2166728;82;21150;-80
2021/05/06 00:08:50;;;;;;;24.63;8.97;;;;;;;4.90;71.19;97994.43;2165971;82;21122;-80
2021/05/06 00:31:56;;;;;;;14.60;7.17;;;;;;;4.80;71.51;98016.64;2089684;85;21193;-80
2021/05/06 00:34:50;;;;;;;21.03;8.10;;;;;;;4.83;71.37;98013.67;2089643;85;21177;-81
2021/05/06 00:37:57;;;;;;;17.77;7.27;;;;;;;4.81;71.40;98021.39;2090221;85;21141;-79
2021/05/06 00:41:11;;;;;;;25.20;8.57;;;;;;;4.79;71.33;98017.91;2089627;85;21161;-79
2021/05/06 00:44:22;;;;;;;15.47;7.87;;;;;;;4.78;71.28;98027.80;2089825;85;21621;-80
2021/05/06 00:54:18;;;;;;;25.67;8.93;;;;;;;4.67;71.15;98043.48;2042735;87;21201;-79
2021/05/06 00:57:09;;;;;;;24.03;7.37;;;;;;;4.64;71.31;98048.59;2040108;87;21173;-80
2021/05/06 01:00:27;;;;;;;25.27;7.80;;;;;;;4.60;71.42;98049.36;2042738;84;21169;-81
2021/05/06 01:03:30;;;;;;;16.57;7.13;;;;;;;4.57;71.28;98059.63;2041621;87;21221;-81
2021/05/06 01:06:27;;;;;;;19.27;6.83;;;;;;;4.56;71.29;98058.76;2042018;87;21431;-81
2021/05/06 01:09:32;;;;;;;7.57;5.13;;;;;;;4.56;71.46;98063.05;2042978;87;21178;-80
2021/05/06 01:12:31;;;;;;;17.83;7.87;;;;;;;4.54;71.52;98055.27;2042722;87;21181;-81
2021/05/06 01:15:32;;;;;;;26.00;7.37;;;;;;;4.50;71.40;98057.33;2042929;87;21177;-79
2021/05/06 01:18:33;;;;;;;17.23;6.93;;;;;;;4.46;71.50;98061.97;2042879;87;21156;-80
2021/05/06 01:21:34;;;;;;;28.33;9.03;;;;;;;4.41;71.53;98069.62;2042848;87;21185;-78
2021/05/06 01:24:35;;;;;;;28.73;8.33;;;;;;;4.38;71.31;98066.09;2042948;87;21475;-77
2021/05/06 01:27:41;;;;;;;29.63;8.57;;;;;;;4.36;71.35;98070.34;2116694;82;21138;-78
2021/05/06 01:30:44;;;;;;;18.65;6.80;;;;;;;4.35;71.58;98081.52;2166401;82;21131;-79
2021/05/06 01:33:47;;;;;;;24.40;6.90;;;;;;;4.34;71.54;98089.69;2166306;82;21131;-78
2021/05/06 01:36:49;;;;;;;20.50;6.00;;;;;;;4.35;71.50;98091.85;2166262;82;21139;-79
2021/05/06 01:40:23;;;;;;;21.37;6.33;;;;;;;4.38;71.45;98095.80;2166476;82;21126;-80
2021/05/06 01:43:25;;;;;;;14.70;5.03;;;;;;;4.44;71.34;98095.53;2164934;82;21281;-78
2021/05/06 01:49:59;;;;;;;10.37;4.50;;;;;;;4.46;71.04;98084.81;2151846;82;21273;-78
2021/05/06 01:59:45;;;;;;;8.97;4.03;;;;;;;4.41;70.69;98094.16;2060518;86;21322;-80
2021/05/06 02:02:45;;;;;;;4.90;4.23;;;;;;;4.41;70.81;98101.91;2060395;85;21326;-79
2021/05/06 02:05:46;;;;;;;12.37;4.43;;;;;;;4.37;70.86;98098.80;2060220;86;21254;-79
2021/05/06 02:08:47;;;;;;;8.20;4.50;;;;;;;4.35;70.98;98109.94;2060364;85;21283;-79
2021/05/06 02:11:48;;;;;;;7.60;4.63;;;;;;;4.31;70.87;98111.95;2060466;86;21271;-78
2021/05/06 02:14:53;;;;;;;8.43;4.13;;;;;;;4.29;70.95;98109.34;2060422;86;21295;-79
2021/05/06 02:17:55;;;;;;;8.70;5.20;;;;;;;4.27;71.00;98108.42;2060437;86;21573;-79
2021/05/06 02:20:56;;;;;;;8.73;4.27;;;;;;;4.24;70.88;98113.52;2060369;86;21116;-79
2021/05/06 02:23:57;;;;;;;9.43;4.43;;;;;;;4.24;71.01;98114.81;2064659;85;21401;-80
2021/05/06 02:26:58;;;;;;;9.70;4.60;;;;;;;4.23;70.99;98110.89;2076644;86;21418;-79
2021/05/06 02:29:59;;;;;;;6.27;4.67;;;;;;;4.19;70.92;98113.82;2076820;86;21209;-79
2021/05/06 02:33:04;;;;;;;24.13;5.27;;;;;;;4.14;70.97;98115.00;2076797;86;21246;-80
2021/05/06 02:36:04;;;;;;;6.83;4.30;;;;;;;4.10;71.04;98117.05;2123494;83;21166;-79
2021/05/06 02:39:05;;;;;;;10.23;4.80;;;;;;;4.05;71.10;98116.47;2156446;82;21915;-78
2021/05/06 02:42:06;;;;;;;12.43;4.80;;;;;;;4.01;71.16;98114.23;2156360;82;21123;-79
2021/05/06 02:45:08;;;;;;;12.00;4.60;;;;;;;3.97;71.05;98121.86;2156095;82;21273;-79
2021/05/06 02:48:09;;;;;;;8.30;4.77;;;;;;;3.95;71.12;98126.10;2155985;82;21111;-79
2021/05/06 02:51:11;;;;;;;6.90;4.47;;;;;;;3.91;71.14;98123.86;2156290;82;21139;-80
2021/05/06 02:54:12;;;;;;;9.43;4.50;;;;;;;3.87;71.25;98125.03;2156513;82;21146;-79
2021/05/06 02:57:21;;;;;;;6.53;4.33;;;;;;;3.84;71.33;98138.31;2156260;83;21140;-78
2021/05/06 03:03:43;;;;;;;9.93;5.03;;;;;;;3.78;71.44;98149.77;2155953;82;21143;-78
2021/05/06 03:06:48;;;;;;;10.13;5.50;;;;;;;3.80;71.38;98151.97;2155784;82;21159;-79
2021/05/06 03:09:58;;;;;;;7.83;4.30;;;;;;;3.84;71.43;98155.09;2156460;83;21257;-77
2021/05/06 03:13:13;;;;;;;8.37;3.90;;;;;;;3.83;71.34;98164.97;2156405;82;21114;-78
2021/05/06 03:22:49;;;;;;;7.73;3.77;;;;;;;3.88;71.03;98183.58;2156321;82;21273;-81
2021/05/06 03:25:50;;;;;;;52.27;22.93;;;;;;;3.93;71.00;98185.45;2151723;82;21253;-77
2021/05/06 03:28:54;;;;;;;79.40;49.33;;;;;;;4.95;76.86;98192.38;2179770;82;21265;-77
2021/05/06 03:32:06;;;;;;;23.00;13.43;;;;;;;8.65;71.26;98177.80;2179541;82;21158;-77
2021/05/06 03:35:14;;;;;;;23.03;15.63;;;;;;;11.79;61.46;98173.57;2179238;82;21138;-78
2021/05/06 03:41:57;;;;;;;17.20;4.20;;;;;;;13.71;53.35;98174.84;2095995;85;21554;-77
2021/05/06 03:49:03;;;;;;;26.83;4.20;;;;;;;14.10;49.86;98192.33;2165667;82;21174;-77
2021/05/06 04:12:31;;;;;;;7.62;2.98;;;;;;;16.72;41.79;98218.99;2067616;86;21201;-77
2021/05/06 04:15:48;;;;;;;376.90;24.35;;;;;;;16.70;40.93;98215.97;2062997;86;21276;-76
2021/05/06 04:18:52;;;;;;;11.73;3.67;;;;;;;16.51;39.92;98220.30;2022160;88;21328;-77
2021/05/06 04:22:07;;;;;;;15.58;3.70;;;;;;;15.64;39.71;98223.78;2065338;86;21185;-76
2021/05/06 04:38:08;;;;;;;15.53;3.85;;;;;;;15.26;40.96;98235.77;2189239;81;21260;-76
2021/05/06 04:41:33;;;;;;;14.98;3.77;;;;;;;15.92;39.86;98229.40;2189258;81;21248;-77
2021/05/06 04:54:43;;;;;;;17.57;4.30;;;;;;;15.27;39.49;98248.03;2188511;81;21295;-79
2021/05/06 04:58:01;;;;;;;7.47;3.33;;;;;;;14.99;39.60;98257.24;2188343;81;21415;-78
2021/05/06 05:04:25;;;;;;;12.00;3.92;;;;;;;13.10;42.84;98267.57;2189030;81;21133;-78
2021/05/06 05:07:26;;;;;;;17.05;3.20;;;;;;;13.76;43.75;98270.08;2188933;81;21252;-79
2021/05/06 05:10:51;;;;;;;7.33;3.05;;;;;;;14.89;43.53;98264.84;2189350;81;21550;-78
2021/05/06 05:13:58;;;;;;;17.23;3.02;;;;;;;14.70;41.32;98261.58;2189751;81;21490;-78
2021/05/06 05:20:21;;;;;;;16.27;3.52;;;;;;;16.00;41.15;98263.47;2189620;81;21261;-78
2021/05/06 05:26:40;;;;;;;30.25;6.05;;;;;;;16.91;38.28;98265.56;2181122;81;21389;-78
2021/05/06 05:29:41;;;;;;;39.63;5.80;;;;;;;15.69;37.37;98279.82;2180270;81;21110;-79
2021/05/06 05:32:42;;;;;;;23.22;4.20;;;;;;;15.98;38.80;98270.53;2179269;81;21134;-79
2021/05/06 05:35:52;;;;;;;8.75;3.27;;;;;;;15.70;37.28;98271.48;2179267;81;21412;-79
2021/05/06 05:38:54;;;;;;;22.30;4.05;;;;;;;15.21;36.19;98280.99;2178862;82;21142;-80
2021/05/06 05:42:13;;;;;;;11.60;4.45;;;;;;;13.49;40.14;98279.08;2180056;82;21122;-79
2021/05/06 05:54:31;;;;;;;15.58;3.30;;;;;;;13.13;42.08;98288.52;2178544;82;21127;-80
2021/05/06 05:55:24;;;;;;;12.80;3.92;;;;;;;12.06;44.02;98300.33;2178380;81;21165;-78
2021/05/06 05:58:25;;;;;;;19.67;3.65;;;;;;;11.87;44.60;98305.17;2178404;81;21138;-79
2021/05/06 06:01:27;;;;;;;15.85;3.75;;;;;;;13.91;42.67;98298.81;2179328;81;21102;-79
2021/05/06 06:04:28;;;;;;;11.70;4.10;;;;;;;15.33;38.53;98298.78;2180068;81;21158;-79
2021/05/06 06:07:29;;;;;;;19.73;3.75;;;;;;;14.61;39.15;98294.53;2180136;81;21118;-79
2021/05/06 06:10:31;;;;;;;24.47;3.33;;;;;;;14.59;39.34;98294.55;2180163;81;21130;-80
2021/05/06 06:13:32;;;;;;;9.73;3.10;;;;;;;15.24;39.37;98286.20;2180050;81;21252;-80
2021/05/06 06:16:35;;;;;;;8.93;2.77;;;;;;;15.73;38.20;98287.22;2180156;81;21126;-79
2021/05/06 06:19:37;;;;;;;10.65;3.00;;;;;;;14.44;37.26;98288.19;2179959;81;21087;-77
2021/05/06 06:22:39;;;;;;;9.73;3.20;;;;;;;13.06;39.36;98287.24;2179536;81;21142;-80
2021/05/06 06:25:40;;;;;;;18.82;3.60;;;;;;;12.23;41.71;98283.73;2170992;81;21261;-78
2021/05/06 06:28:42;;;;;;;11.97;3.80;;;;;;;11.93;42.40;98293.39;2162736;82;21088;-77
2021/05/06 06:31:46;;;;;;;7.10;4.17;;;;;;;11.62;43.73;98295.59;2162886;82;21127;-79
2021/05/06 06:34:47;;;;;;;12.30;3.72;;;;;;;11.08;44.53;98294.69;2162622;82;21243;-79
2021/05/06 06:37:48;;;;;;;10.65;2.80;;;;;;;10.99;44.77;98288.14;2162789;82;21245;-80
2021/05/06 06:40:49;;;;;;;10.75;3.87;;;;;;;11.08;44.31;98290.77;2162601;82;21162;-80
2021/05/06 06:43:51;;;;;;;8.48;3.08;;;;;;;11.10;44.98;98296.86;2162769;82;21150;-80
2021/05/06 06:47:01;;;;;;;10.25;3.22;;;;;;;11.05;44.64;98294.25;2162584;82;21380;-79
2021/05/06 06:50:02;;;;;;;23.00;3.50;;;;;;;10.76;45.69;98305.95;2162884;82;21237;-80
2021/05/06 06:53:03;;;;;;;8.83;3.45;;;;;;;10.82;45.19;98296.82;2162440;82;21178;-79
2021/05/06 06:56:04;;;;;;;14.07;3.25;;;;;;;10.92;45.67;98292.92;2161365;82;21138;-78
2021/05/06 06:59:05;;;;;;;12.17;3.43;;;;;;;10.55;44.53;98300.67;2162214;82;21686;-80
2021/05/06 07:02:06;;;;;;;12.27;2.93;;;;;;;10.37;45.27;98307.09;2162211;82;21079;-80
2021/05/06 07:05:09;;;;;;;20.00;3.30;;;;;;;10.11;45.30;98304.33;2162707;82;21265;-80
2021/05/06 07:08:10;;;;;;;14.07;3.30;;;;;;;9.92;45.39;98308.58;2162948;82;21130;-79
2021/05/06 07:11:11;;;;;;;7.33;2.67;;;;;;;9.90;45.66;98308.56;2162813;82;21252;-79
2021/05/06 07:14:12;;;;;;;6.87;2.70;;;;;;;9.98;45.40;98320.34;2162709;82;21146;-80
2021/05/06 07:17:13;;;;;;;10.17;3.50;;;;;;;10.11;45.27;98311.72;2161796;82;21527;-80
2021/05/06 07:20:15;;;;;;;15.63;3.33;;;;;;;10.11;45.22;98309.55;2162997;82;21127;-79
2021/05/06 07:23:17;;;;;;;27.30;4.07;;;;;;;10.51;45.82;98298.48;2162519;82;21329;-80
2021/05/06 07:26:18;;;;;;;10.03;3.80;;;;;;;10.91;45.38;98308.16;2162320;82;21131;-80
2021/05/06 07:29:21;;;;;;;8.00;4.72;;;;;;;10.94;44.03;98285.97;2161993;82;21127;-80
2021/05/06 07:32:22;;;;;;;7.78;3.30;;;;;;;11.34;43.24;98299.95;2162626;82;21269;-79
2021/05/06 07:35:23;;;;;;;7.60;2.60;;;;;;;11.47;41.46;98296.47;2161115;82;21135;-79
2021/05/06 07:38:24;;;;;;;10.32;3.10;;;;;;;11.84;41.00;98296.02;2162068;82;21122;-81
2021/05/06 07:41:25;;;;;;;11.65;2.80;;;;;;;12.21;41.69;98282.44;2163066;82;21111;-79
2021/05/06 07:44:26;;;;;;;7.22;3.22;;;;;;;12.65;39.97;98288.77;2162917;82;21281;-80
2021/05/06 07:47:27;;;;;;;5.97;3.25;;;;;;;12.40;39.54;98288.47;2162916;82;21686;-80
2021/05/06 07:50:28;;;;;;;13.62;2.98;;;;;;;12.28;40.09;98288.52;2162714;82;21241;-82
2021/05/06 07:53:37;;;;;;;8.43;3.00;;;;;;;12.38;40.90;98283.67;2163076;82;21115;-80
2021/05/06 07:56:37;;;;;;;8.23;2.60;;;;;;;12.59;40.38;98279.64;2162863;82;21135;-79
2021/05/06 07:59:38;;;;;;;4.83;2.50;;;;;;;12.90;40.39;98288.20;2163216;82;21237;-81
2021/05/06 08:02:40;;;;;;;5.45;2.60;;;;;;;13.36;38.67;98292.73;2163041;82;21116;-78
2021/05/06 08:05:42;;;;;;;10.50;3.08;;;;;;;13.59;38.32;98284.66;2162239;82;21257;-77
2021/05/06 08:08:43;;;;;;;23.70;3.58;;;;;;;13.81;38.38;98289.27;2162947;82;21238;-81
2021/05/06 08:11:44;;;;;;;8.08;2.47;;;;;;;13.70;37.96;98292.43;2163770;82;21138;-82
2021/05/06 08:14:46;;;;;;;11.68;2.90;;;;;;;13.39;37.02;98290.52;2163120;82;21535;-80
2021/05/06 08:17:49;;;;;;;9.45;3.15;;;;;;;13.49;36.93;98297.88;2162804;82;21261;-81
2021/05/06 08:20:50;;;;;;;3.90;2.55;;;;;;;13.77;37.85;98294.11;2163411;82;21137;-81
2021/05/06 08:23:52;;;;;;;5.33;2.15;;;;;;;13.61;36.86;98301.70;2163293;82;21288;-81
2021/05/06 08:26:53;;;;;;;15.25;3.10;;;;;;;13.39;36.52;98299.26;2176049;81;21150;-81
2021/05/06 08:29:54;;;;;;;5.42;2.60;;;;;;;13.22;37.10;98298.52;2180918;82;21514;-82
2021/05/06 08:32:55;;;;;;;5.85;2.52;;;;;;;13.02;36.40;98293.83;2180572;81;21368;-81
2021/05/06 08:35:56;;;;;;;6.80;2.47;;;;;;;12.99;36.34;98295.13;2179561;81;21146;-81
2021/05/06 08:38:57;;;;;;;5.97;2.52;;;;;;;13.32;36.25;98294.95;2180175;81;21137;-80
2021/05/06 08:41:59;;;;;;;4.85;2.40;;;;;;;13.65;35.87;98288.54;2180609;81;21430;-81
2021/05/06 08:45:02;;;;;;;6.45;2.55;;;;;;;14.16;35.89;98286.30;2180353;81;21169;-81
2021/05/06 08:48:03;;;;;;;5.50;2.35;;;;;;;14.49;34.47;98295.56;2180379;81;21086;-81
2021/05/06 08:51:05;;;;;;;3.67;2.30;;;;;;;14.59;35.60;98292.38;2179949;81;21277;-81
2021/05/06 08:54:06;;;;;;;5.60;2.47;;;;;;;14.70;34.19;98274.70;2179278;81;21292;-81
2021/05/06 08:57:07;;;;;;;6.40;2.22;;;;;;;14.76;33.93;98279.91;2180593;81;21140;-81
2021/05/06 09:00:09;;;;;;;51.35;4.87;;;;;;;15.02;33.92;98270.34;2180690;82;21126;-81
2021/05/06 09:03:10;;;;;;;7.22;2.67;;;;;;;15.19;32.88;98273.58;2179587;81;21300;-82
2021/05/06 09:06:18;;;;;;;9.18;2.65;;;;;;;15.30;33.62;98289.19;2180722;82;21499;-80
2021/05/06 09:09:20;;;;;;;5.10;3.15;;;;;;;15.55;33.20;98287.02;2179833;81;21118;-81
2021/05/06 09:12:22;;;;;;;17.67;3.45;;;;;;;15.79;33.20;98281.39;2179700;81;21118;-80
2021/05/06 09:15:23;;;;;;;30.30;4.20;;;;;;;15.93;32.41;98280.70;2180098;81;21159;-80
2021/05/06 09:18:24;;;;;;;5.50;2.80;;;;;;;15.35;31.95;98276.83;2180554;81;21141;-80
2021/05/06 09:21:25;;;;;;;7.17;3.02;;;;;;;15.29;32.38;98280.42;2179316;81;21923;-81
2021/05/06 09:24:26;;;;;;;12.00;3.98;;;;;;;15.29;32.98;98276.48;2178792;81;21145;-81
2021/05/06 09:27:27;;;;;;;3.55;2.27;;;;;;;15.22;33.53;98278.78;2164424;81;21142;-79
2021/05/06 09:30:28;;;;;;;8.43;2.85;;;;;;;15.22;33.15;98289.30;2161764;82;21254;-79
2021/05/06 09:33:30;;;;;;;11.70;2.77;;;;;;;14.93;33.84;98282.30;2162282;82;21114;-79
2021/05/06 09:36:31;;;;;;;4.30;2.52;;;;;;;14.38;34.14;98280.34;2162582;82;21680;-82
2021/05/06 09:39:32;;;;;;;6.17;2.30;;;;;;;14.46;33.81;98277.22;2162693;82;21364;-80
2021/05/06 09:42:33;;;;;;;10.85;2.80;;;;;;;14.59;33.54;98276.61;2162726;82;21447;-80
2021/05/06 09:45:35;;;;;;;7.83;1.90;;;;;;;14.19;32.75;98282.77;2162737;82;21535;-81
2021/05/06 09:48:36;;;;;;;8.63;2.05;;;;;;;13.97;33.10;98285.63;2163352;82;21383;-82
2021/05/06 09:51:37;;;;;;;7.08;1.90;;;;;;;14.25;33.32;98276.13;2163151;82;21230;-81
2021/05/06 09:54:38;;;;;;;8.03;2.27;;;;;;;14.94;32.60;98276.16;2163262;82;21091;-81
2021/05/06 09:57:39;;;;;;;56.65;5.95;;;;;;;15.60;32.69;98273.38;2162533;82;21321;-81
2021/05/06 10:00:40;;;;;;;6.15;1.92;;;;;;;15.84;31.70;98261.58;2162155;82;21117;-81
2021/05/06 10:03:44;;;;;;;5.80;2.45;;;;;;;16.00;31.66;98255.13;2162827;82;21264;-78
2021/05/06 10:06:44;;;;;;;7.33;2.30;;;;;;;16.09;31.65;98256.27;2162521;82;21543;-81
2021/05/06 10:09:46;;;;;;;10.70;2.98;;;;;;;16.45;30.44;98256.41;2163030;82;21233;-81
2021/05/06 10:12:49;;;;;;;5.90;2.70;;;;;;;16.57;31.34;98262.77;2163193;82;21519;-80
2021/05/06 10:15:50;;;;;;;4.60;2.35;;;;;;;16.30;30.68;98260.23;2161954;82;21934;-81
2021/05/06 10:18:51;;;;;;;7.72;2.45;;;;;;;15.63;29.86;98270.72;2162627;82;21122;-79
2021/05/06 10:21:52;;;;;;;8.58;2.75;;;;;;;15.01;31.74;98269.05;2163256;82;21126;-80
2021/05/06 10:24:53;;;;;;;3.40;2.05;;;;;;;15.11;31.08;98264.94;2163119;82;21281;-82
2021/05/06 10:27:56;;;;;;;12.50;3.35;;;;;;;14.98;31.07;98242.37;2172539;81;21170;-80
2021/05/06 10:30:57;;;;;;;5.17;2.00;;;;;;;15.01;32.13;98252.83;2172555;82;21130;-82
2021/05/06 10:33:58;;;;;;;4.80;2.70;;;;;;;15.01;32.13;98252.83;2173157;82;21228;-83
2021/05/06 10:36:59;;;;;;;13.75;2.42;;;;;;;15.06;32.11;98248.81;2173170;82;21111;-79
2021/05/06 10:40:00;;;;;;;7.15;2.33;;;;;;;15.15;31.79;98253.48;2173351;82;21412;-80
2021/05/06 10:43:02;;;;;;;5.65;2.30;;;;;;;15.35;30.92;98257.55;2173128;82;21228;-79
2021/05/06 10:46:03;;;;;;;3.77;1.70;;;;;;;15.50;32.07;98246.77;2173099;82;21094;-79
2021/05/06 10:49:06;;;;;;;6.42;1.90;;;;;;;15.92;30.44;98240.80;2173709;82;21237;-82
2021/05/06 10:52:07;;;;;;;4.12;1.98;;;;;;;16.35;31.65;98239.94;2173209;82;21107;-82
2021/05/06 10:55:10;;;;;;;7.45;2.02;;;;;;;16.48;29.23;98244.08;2172988;82;21083;-80
2021/05/06 10:58:11;;;;;;;6.65;1.75;;;;;;;16.09;30.49;98237.83;2172852;82;21138;-82
2021/05/06 11:01:12;;;;;;;8.15;1.90;;;;;;;15.93;31.42;98242.53;2172551;82;21119;-82
2021/05/06 11:04:15;;;;;;;4.10;1.65;;;;;;;15.85;30.45;98246.20;2171677;82;21276;-80
2021/05/06 11:07:18;;;;;;;5.08;1.95;;;;;;;15.63;31.24;98240.91;2171891;82;21126;-78
2021/05/06 11:10:19;;;;;;;7.05;2.08;;;;;;;15.47;32.07;98249.45;2172720;82;21119;-81
2021/05/06 11:13:21;;;;;;;5.60;2.33;;;;;;;15.92;31.98;98234.22;2173095;82;21118;-82
2021/05/06 11:16:22;;;;;;;4.72;2.35;;;;;;;15.95;32.17;98245.58;2173077;82;21119;-82
2021/05/06 11:19:23;;;;;;;2.15;1.95;;;;;;;15.89;32.14;98250.06;2172410;82;21122;-81
2021/05/06 11:22:24;;;;;;;6.65;2.40;;;;;;;15.75;32.66;98248.14;2172391;82;21237;-80
2021/05/06 11:25:28;;;;;;;10.80;2.20;;;;;;;15.83;31.80;98236.16;2172563;81;21154;-79
2021/05/06 11:28:29;;;;;;;3.52;1.98;;;;;;;15.89;32.30;98238.67;2180696;81;21241;-81
2021/05/06 11:31:30;;;;;;;7.05;2.20;;;;;;;15.84;32.56;98237.89;2180158;81;21224;-81
2021/05/06 11:34:31;;;;;;;7.08;2.47;;;;;;;15.42;32.67;98252.61;2181547;81;21414;-79
2021/05/06 11:37:33;;;;;;;19.82;2.27;;;;;;;15.05;32.74;98247.08;2181119;81;21192;-79
2021/05/06 11:40:34;;;;;;;8.18;1.87;;;;;;;14.77;33.90;98265.89;2180845;82;21130;-79
2021/05/06 11:43:35;;;;;;;1.50;1.30;;;;;;;14.53;33.86;98275.38;2181188;81;21431;-79
2021/05/06 11:46:39;;;;;;;2.77;1.27;;;;;;;14.26;33.91;98272.63;2180432;81;21229;-78
2021/05/06 11:49:39;;;;;;;2.27;1.60;;;;;;;14.23;35.27;98276.59;2180432;81;21423;-79
2021/05/06 11:52:40;;;;;;;2.67;1.30;;;;;;;14.76;34.57;98275.10;2180639;81;21110;-79
2021/05/06 11:55:43;;;;;;;4.15;1.57;;;;;;;15.26;33.90;98276.98;2180605;81;21135;-78
2021/05/06 11:58:44;;;;;;;2.52;2.10;;;;;;;15.52;33.50;98260.32;2180202;81;21392;-79
2021/05/06 12:01:45;;;;;;;1.52;1.40;;;;;;;15.77;33.08;98259.50;2180226;81;21137;-79
2021/05/06 12:04:46;;;;;;;1.57;1.47;;;;;;;16.17;32.90;98254.80;2180337;81;21122;-79
2021/05/06 12:07:48;;;;;;;7.37;1.70;;;;;;;16.32;31.58;98247.03;2180169;81;21139;-78
2021/05/06 12:10:48;;;;;;;4.83;1.37;;;;;;;16.58;31.18;98246.52;2180221;81;21114;-78
2021/05/06 12:13:50;;;;;;;2.52;1.30;;;;;;;16.86;30.38;98241.08;2180229;81;21419;-78
2021/05/06 12:16:51;;;;;;;1.80;1.70;;;;;;;16.77;30.90;98243.92;2180873;81;21229;-78
2021/05/06 12:19:52;;;;;;;2.08;1.90;;;;;;;16.00;32.89;98248.99;2180734;81;21114;-78
2021/05/06 12:22:55;;;;;;;3.15;1.95;;;;;;;14.56;37.12;98271.40;2180012;81;21422;-78
2021/05/06 12:25:56;;;;;;;4.85;2.12;;;;;;;13.61;38.86;98272.85;2178318;81;21122;-77
2021/05/06 12:28:57;;;;;;;2.85;2.10;;;;;;;13.19;41.26;98286.75;2162550;82;21241;-78
2021/05/06 12:31:58;;;;;;;2.75;2.10;;;;;;;12.96;42.59;98264.58;2162317;82;21115;-77
2021/05/06 12:34:59;;;;;;;3.35;2.27;;;;;;;12.90;42.27;98262.00;2162026;82;21527;-77
2021/05/06 12:38:00;;;;;;;2.40;1.90;;;;;;;12.50;43.09;98261.37;2162772;82;21083;-78
2021/05/06 12:41:01;;;;;;;2.50;2.30;;;;;;;12.35;43.54;98264.93;2162446;82;21225;-77
2021/05/06 12:44:03;;;;;;;3.75;2.72;;;;;;;12.17;43.53;98261.08;2162293;82;21158;-77
2021/05/06 12:47:04;;;;;;;3.15;2.85;;;;;;;11.98;43.46;98247.60;2162327;82;21114;-77
2021/05/06 12:50:05;;;;;;;2.92;2.62;;;;;;;11.67;44.38;98269.88;2162303;82;21518;-77
2021/05/06 12:53:06;;;;;;;4.42;2.30;;;;;;;11.37;45.86;98291.68;2162510;82;21240;-77
2021/05/06 12:56:07;;;;;;;5.53;2.40;;;;;;;10.74;47.55;98311.59;2162773;82;21205;-78
2021/05/06 12:59:08;;;;;;;2.80;2.43;;;;;;;9.90;53.42;98315.09;2162734;82;21523;-78
2021/05/06 13:02:10;;;;;;;19.00;17.23;;;;;;;9.58;53.70;98291.42;2162090;82;21119;-78
2021/05/06 13:05:13;;;;;;;2.77;2.40;;;;;;;10.10;55.53;98277.81;2162145;82;21157;-78
2021/05/06 13:08:14;;;;;;;4.40;2.00;;;;;;;10.60;54.46;98265.02;2162626;82;21249;-78
2021/05/06 13:11:15;;;;;;;3.47;2.50;;;;;;;10.93;53.67;98259.41;2162802;82;21258;-77
2021/05/06 13:14:16;;;;;;;5.83;3.33;;;;;;;11.39;53.92;98260.33;2162390;82;21094;-78
2021/05/06 13:17:20;;;;;;;9.78;5.80;;;;;;;11.70;52.08;98241.55;2162651;82;21221;-78
2021/05/06 13:20:21;;;;;;;9.83;5.27;;;;;;;11.87;50.26;98234.56;2162490;82;21515;-78
2021/05/06 13:23:22;;;;;;;13.15;5.20;;;;;;;11.73;49.54;98236.31;2161040;82;21280;-78
2021/05/06 13:26:23;;;;;;;8.43;3.47;;;;;;;12.00;49.49;98232.77;2164074;81;21400;-77
2021/05/06 13:29:24;;;;;;;6.33;2.33;;;;;;;12.34;49.30;98229.17;2172524;82;21130;-77
2021/05/06 13:32:25;;;;;;;1.95;1.85;;;;;;;12.56;47.67;98233.84;2172731;82;21130;-77
2021/05/06 13:35:27;;;;;;;3.83;2.25;;;;;;;12.50;47.56;98233.01;2172887;82;21420;-77
2021/05/06 13:38:28;;;;;;;3.52;2.45;;;;;;;12.32;47.28;98234.84;2172600;82;21412;-78
2021/05/06 13:41:29;;;;;;;4.53;3.10;;;;;;;12.07;48.04;98242.34;2171702;82;21130;-77
2021/05/06 13:44:31;;;;;;;14.53;2.37;;;;;;;11.96;48.21;98278.13;2173038;82;21276;-79
2021/05/06 13:47:32;;;;;;;7.90;1.87;;;;;;;11.72;49.69;98316.92;2172932;82;21228;-79
2021/05/06 13:50:33;;;;;;;3.87;1.40;;;;;;;10.85;54.20;98332.08;2173103;82;21236;-79
2021/05/06 13:53:34;;;;;;;3.37;2.50;;;;;;;9.85;56.22;98322.00;2172876;82;21112;-78
2021/05/06 13:56:35;;;;;;;3.77;2.00;;;;;;;9.55;57.22;98257.53;2172893;82;21158;-77
2021/05/06 13:59:36;;;;;;;5.83;2.50;;;;;;;9.88;58.72;98301.17;2172521;82;21114;-78
2021/05/06 14:02:37;;;;;;;7.97;2.27;;;;;;;10.48;57.90;98281.94;2172303;82;21134;-77
2021/05/06 14:05:39;;;;;;;7.70;2.50;;;;;;;12.53;56.35;98265.28;2172520;82;21142;-77
2021/05/06 14:08:40;;;;;;;7.22;3.00;;;;;;;14.35;50.77;98254.13;2171938;82;21078;-77
2021/05/06 14:11:41;;;;;;;4.08;2.22;;;;;;;14.13;49.96;98244.78;2172304;82;21118;-77
2021/05/06 14:14:42;;;;;;;3.67;2.83;;;;;;;14.01;49.42;98230.92;2172243;82;21169;-77
2021/05/06 14:17:43;;;;;;;3.80;2.00;;;;;;;13.81;49.09;98225.44;2172138;82;21146;-78
2021/05/06 14:20:44;;;;;;;6.50;2.12;;;;;;;13.69;48.55;98226.44;2172672;82;21115;-76
2021/05/06 14:23:45;;;;;;;3.17;1.90;;;;;;;13.48;48.17;98222.72;2172419;82;21154;-77
2021/05/06 14:26:48;;;;;;;2.35;1.70;;;;;;;13.23;49.42;98231.25;2174151;82;21149;-77
2021/05/06 14:29:49;;;;;;;3.80;2.05;;;;;;;12.99;49.72;98227.01;2179562;81;21126;-77
2021/05/06 14:32:50;;;;;;;2.60;2.02;;;;;;;12.93;50.23;98221.38;2179689;81;21125;-77
2021/05/06 14:35:52;;;;;;;4.83;2.05;;;;;;;13.18;49.78;98209.02;2179664;82;21135;-76
2021/05/06 14:38:54;;;;;;;10.18;2.92;;;;;;;13.56;49.81;98207.34;2179575;81;21403;-77
2021/05/06 14:41:55;;;;;;;6.28;2.70;;;;;;;13.86;49.15;98197.40;2180130;81;21142;-77
2021/05/06 14:44:56;;;;;;;6.70;2.95;;;;;;;13.94;47.14;98193.83;2179721;81;21126;-77
2021/05/06 14:47:58;;;;;;;2.47;1.77;;;;;;;13.81;46.45;98188.27;2179829;81;21403;-77
2021/05/06 14:50:59;;;;;;;3.02;2.00;;;;;;;13.84;46.11;98185.61;2179870;81;21126;-77
2021/05/06 14:54:00;;;;;;;3.70;2.05;;;;;;;13.75;47.43;98176.98;2179882;81;21126;-77
2021/05/06 14:57:01;;;;;;;3.20;1.90;;;;;;;13.83;47.42;98171.20;2179519;81;21138;-76
2021/05/06 15:00:02;;;;;;;4.55;2.83;;;;;;;13.79;46.46;98159.88;2179705;81;21122;-77
2021/05/06 15:03:03;;;;;;;3.15;2.00;;;;;;;13.84;48.91;98162.00;2180153;82;21229;-77
2021/05/06 15:06:04;;;;;;;2.22;2.02;;;;;;;13.78;49.19;98165.14;2179899;82;21137;-77
2021/05/06 15:09:08;;;;;;;2.42;1.82;;;;;;;13.52;48.41;98153.19;2180238;81;21118;-77
2021/05/06 15:12:09;;;;;;;2.75;2.37;;;;;;;13.46;49.13;98155.87;2179967;81;21102;-77
2021/05/06 15:15:10;;;;;;;5.03;2.70;;;;;;;13.96;48.47;98151.39;2179762;81;21118;-77
2021/05/06 15:18:11;;;;;;;2.15;1.95;;;;;;;13.96;48.37;98139.58;2180031;81;21130;-77
2021/05/06 15:21:12;;;;;;;3.85;1.98;;;;;;;14.08;47.84;98129.81;2179836;81;21126;-77
2021/05/06 15:24:13;;;;;;;2.42;1.95;;;;;;;14.25;47.39;98127.38;2179699;81;21165;-77
2021/05/06 15:27:14;;;;;;;2.55;2.30;;;;;;;14.17;46.58;98120.05;2175165;81;21265;-77
2021/05/06 15:30:16;;;;;;;2.60;2.20;;;;;;;14.25;46.80;98119.95;2162343;82;21107;-77
2021/05/06 15:33:17;;;;;;;4.03;2.25;;;;;;;14.58;46.44;98113.35;2162659;82;21241;-76
2021/05/06 15:36:18;;;;;;;3.67;2.58;;;;;;;14.41;46.13;98115.34;2162345;82;21241;-77
2021/05/06 15:39:21;;;;;;;4.80;1.90;;;;;;;14.25;47.13;98114.25;2162567;82;21531;-78
2021/05/06 15:42:22;;;;;;;3.80;2.37;;;;;;;14.64;46.38;98111.50;2162812;82;21261;-76
2021/05/06 15:45:23;;;;;;;4.15;2.30;;;;;;;14.86;45.56;98100.67;2162521;82;21269;-78
2021/05/06 15:48:24;;;;;;;4.33;2.37;;;;;;;14.99;45.29;98096.93;2162604;82;21563;-77
2021/05/06 15:51:25;;;;;;;3.95;2.15;;;;;;;14.98;45.46;98100.45;2162817;82;21233;-77
2021/05/06 15:54:26;;;;;;;3.15;2.27;;;;;;;15.01;45.55;98093.83;2162884;82;21261;-78
2021/05/06 15:57:27;;;;;;;3.75;2.70;;;;;;;15.04;44.36;98088.97;2162726;82;21266;-77
2021/05/06 16:00:28;;;;;;;3.67;2.77;;;;;;;15.15;44.65;98090.50;2162763;82;21123;-77
2021/05/06 16:03:31;;;;;;;4.85;2.55;;;;;;;15.43;45.05;98086.03;2162510;82;21530;-77
2021/05/06 16:06:32;;;;;;;5.45;2.40;;;;;;;15.64;44.70;98089.62;2162451;82;21539;-77
2021/05/06 16:09:33;;;;;;;5.20;2.58;;;;;;;15.76;44.20;98089.36;2163238;82;21118;-77
2021/05/06 16:12:34;;;;;;;3.55;2.50;;;;;;;15.99;44.33;98076.16;2163110;82;21276;-77